Portada
METAR-TAF:

METAR-TAF

Aeroports :

Kozhikode, Índia

latitud: 11-08-24N, longitud: 75-57-00E, altitud: 104 m

Observació

L'informe es va fer fa 22 minuts, a les 04:30 UTC
Vent 4 kt del Oest/Nord-Oest
Temperatura 32°C
Humitat 63%
Pressió 1012 hPa
Visibilitat: 6000 m
Núvols disperses a una alçada de 1200 ft
Núvols disperses a una alçada de 1800 ft

METAR: VOCL 200430Z 30004KT 6000 SCT012 SCT018 32/24 Q1012 NOSIG

Hora: 10:22 (04:52 UTC)

Pronòstic

L'informe es va fer fa 2 hores i 52 minuts, a les 02:00 UTC
Pronòstic vàlid del 20 a les 03 UTC al 20 a les 12 UTC
Vent 5 kt del Est/Nord-Est
Visibilitat: 6000 m
Núvols disperses a una alçada de 1200 ft
Cel ennuvolat a una alçada de 8000 ft
Evolucionant progressivament
l' 20 a les 04 UTC al 20 a les 06 UTC
Vent 10 kt del Oest

TAF: VOCL 200200Z 2003/2012 06005KT 6000 SCT012 BKN080 BECMG 2004/2006 28010KT

Observacions i pronòstics meteorològics de més de 4000 aeroports (METAR i TAF).

Les estacions disponibles són els punts grocs i vermells al mapa.

Posi el ratolí al punt desitjat per veure el nom de l'estació.

Feu clic per veure les observacions i els pronòstics meteorològics.

Per canviar el mapa: feu clic els botons verds amb una creu de color negre per apropar; al botó verd amb un guió per allunyar la imatge; o en les fletxes verdes per a mapes adjacents.


METAR-TAF: